Time;durP1;ratioP1;P1;durP2;ratioP2;P2;SDS_P1;SDS_P2;PMS_P1;PMS_P2;Temp;Humidity;BMP_temperature;BMP_pressure;BME280_temperature;BME280_humidity;BME280_pressure;Samples;Min_cycle;Max_cycle;Signal;HPM_P1;HPM_P2
2022/01/27 00:03:19;;;;;;;39.33;24.55;;;4.10;1.00;;;;;;5061473;28;20239;-80
2022/01/27 00:05:51;;;;;;;45.53;25.15;;;4.10;1.00;;;;;;5062028;28;20291;-80
2022/01/27 00:08:23;;;;;;;43.38;24.20;;;4.10;1.00;;;;;;5064065;28;20225;-81
2022/01/27 00:10:56;;;;;;;50.08;26.73;;;4.10;1.00;;;;;;5068618;28;20355;-81
2022/01/27 00:13:31;;;;;;;40.03;23.02;;;4.10;1.00;;;;;;5060223;28;20256;-81
2022/01/27 00:16:13;;;;;;;40.10;23.75;;;4.10;1.00;;;;;;5063759;28;20229;-81
2022/01/27 00:18:41;;;;;;;41.65;24.70;;;4.00;1.00;;;;;;5063720;28;20221;-81
2022/01/27 00:21:08;;;;;;;33.88;21.55;;;4.00;1.00;;;;;;5064220;28;20217;-81
2022/01/27 00:23:37;;;;;;;40.65;25.45;;;4.00;1.00;;;;;;5057817;28;20229;-81
2022/01/27 00:26:04;;;;;;;39.28;23.33;;;3.90;1.00;;;;;;5059623;28;20288;-81
2022/01/27 00:28:32;;;;;;;36.60;20.23;;;3.90;1.00;;;;;;5065059;28;20443;-81
2022/01/27 00:30:59;;;;;;;34.75;20.75;;;3.90;1.00;;;;;;5064519;28;20232;-81
2022/01/27 00:33:26;;;;;;;39.35;23.17;;;3.80;1.00;;;;;;5059771;28;20229;-81
2022/01/27 00:35:52;;;;;;;36.35;21.98;;;3.80;1.00;;;;;;5058564;28;20277;-81
2022/01/27 00:38:19;;;;;;;35.75;23.60;;;3.90;1.00;;;;;;5064373;28;20228;-81
2022/01/27 00:40:50;;;;;;;36.67;21.45;;;3.80;1.00;;;;;;5061697;28;20218;-81
2022/01/27 00:43:18;;;;;;;36.97;20.27;;;3.80;1.00;;;;;;5078938;28;20342;-81
2022/01/27 00:45:48;;;;;;;35.35;20.40;;;3.80;1.00;;;;;;5065669;28;20230;-81
2022/01/27 00:48:17;;;;;;;36.75;20.88;;;3.80;1.00;;;;;;5064630;28;20229;-81
2022/01/27 00:50:47;;;;;;;35.80;20.50;;;3.80;1.00;;;;;;5067323;28;20209;-81
2022/01/27 00:53:45;;;;;;;34.40;20.75;;;3.80;1.00;;;;;;5083626;28;20209;-81
2022/01/27 00:56:20;;;;;;;32.38;19.80;;;3.80;1.00;;;;;;5076180;28;20274;-81
2022/01/27 00:58:55;;;;;;;34.83;20.88;;;3.90;1.00;;;;;;5065324;28;20803;-81
2022/01/27 01:01:33;;;;;;;37.13;19.70;;;3.80;1.00;;;;;;5058231;28;20243;-79
2022/01/27 01:04:06;;;;;;;32.80;21.10;;;3.80;1.00;;;;;;5062002;28;20224;-80
2022/01/27 01:06:38;;;;;;;35.75;21.20;;;3.80;1.00;;;;;;5060124;28;20229;-80
2022/01/27 01:13:13;;;;;;;32.97;19.83;;;3.80;1.00;;;;;;5065711;28;20309;-80
2022/01/27 01:15:10;;;;;;;32.00;18.67;;;3.80;1.00;;;;;;5062663;28;20684;-80
2022/01/27 01:20:27;;;;;;;30.70;19.20;;;3.90;1.00;;;;;;5054598;28;20228;-82
2022/01/27 01:31:28;;;;;;;27.50;17.10;;;3.90;1.00;;;;;;5061780;28;20277;-80
2022/01/27 01:34:10;;;;;;;30.58;17.40;;;3.90;1.00;;;;;;5062944;28;20212;-81
2022/01/27 01:36:46;;;;;;;27.20;17.50;;;3.90;1.00;;;;;;5073392;28;20239;-81
2022/01/27 01:39:18;;;;;;;28.00;17.38;;;3.90;1.00;;;;;;5068157;28;20309;-81
2022/01/27 01:41:49;;;;;;;28.35;15.90;;;4.00;1.00;;;;;;5064585;28;20802;-81
2022/01/27 01:44:16;;;;;;;28.67;15.93;;;4.00;1.00;;;;;;5076755;28;20209;-79
2022/01/27 01:46:46;;;;;;;31.27;17.55;;;4.00;1.00;;;;;;5082865;28;20232;-79
2022/01/27 01:49:14;;;;;;;25.85;17.80;;;4.10;1.00;;;;;;5073841;28;20290;-80
2022/01/27 01:51:45;;;;;;;32.40;17.00;;;4.10;1.00;;;;;;5052061;28;20755;-80
2022/01/27 01:54:14;;;;;;;31.48;19.88;;;4.10;1.00;;;;;;5069655;28;22305;-80
2022/01/27 01:56:46;;;;;;;22.75;15.65;;;4.10;1.00;;;;;;5068373;28;20260;-80
2022/01/27 01:59:14;;;;;;;23.92;15.73;;;4.20;1.00;;;;;;5066618;28;21097;-82
2022/01/27 02:01:47;;;;;;;23.17;14.57;;;4.20;1.00;;;;;;5066257;28;20355;-81
2022/01/27 02:04:17;;;;;;;25.45;16.52;;;4.20;1.00;;;;;;5065226;28;20263;-81
2022/01/27 02:06:51;;;;;;;25.17;15.43;;;4.20;1.00;;;;;;5067892;28;20338;-81
2022/01/27 02:09:30;;;;;;;24.85;16.27;;;4.10;1.00;;;;;;5067748;28;20213;-82
2022/01/27 02:18:01;;;;;;;26.35;14.57;;;4.20;1.00;;;;;;5080870;28;20232;-80
2022/01/27 02:20:34;;;;;;;22.70;13.60;;;4.20;1.00;;;;;;5066657;28;20232;-79
2022/01/27 02:23:05;;;;;;;20.35;14.15;;;4.10;1.00;;;;;;5068130;28;20323;-80
2022/01/27 02:25:32;;;;;;;29.08;15.75;;;4.10;1.00;;;;;;5060473;28;20252;-80
2022/01/27 02:28:01;;;;;;;19.33;13.77;;;4.20;1.00;;;;;;5068217;28;20228;-80
2022/01/27 02:30:33;;;;;;;22.55;14.27;;;4.20;1.00;;;;;;5066655;28;20296;-80
2022/01/27 02:33:05;;;;;;;22.27;15.32;;;4.20;1.00;;;;;;5064222;28;20371;-80
2022/01/27 02:35:35;;;;;;;22.67;13.68;;;4.10;1.00;;;;;;5061498;28;20313;-80
2022/01/27 02:38:08;;;;;;;21.60;13.80;;;4.10;1.00;;;;;;5066570;28;20227;-80
2022/01/27 02:40:39;;;;;;;21.17;13.82;;;4.10;1.00;;;;;;5064890;28;20264;-80
2022/01/27 02:43:14;;;;;;;20.17;14.50;;;4.10;1.00;;;;;;5058084;28;20638;-81
2022/01/27 02:45:47;;;;;;;19.10;13.85;;;4.10;1.00;;;;;;5057072;28;21007;-80
2022/01/27 02:48:16;;;;;;;22.63;13.77;;;4.20;1.00;;;;;;5063365;28;20236;-80
2022/01/27 02:50:45;;;;;;;22.52;14.85;;;4.20;1.00;;;;;;5062999;28;20220;-81
2022/01/27 02:53:12;;;;;;;21.92;15.13;;;4.20;1.00;;;;;;5062336;28;20251;-80
2022/01/27 02:55:39;;;;;;;23.75;15.50;;;4.20;1.00;;;;;;5069229;28;20225;-81
2022/01/27 02:58:15;;;;;;;22.42;14.55;;;4.20;1.00;;;;;;5067759;28;20217;-81
2022/01/27 03:00:42;;;;;;;21.13;14.52;;;4.20;1.00;;;;;;5059814;28;20239;-80
2022/01/27 03:03:12;;;;;;;26.50;16.02;;;4.20;1.00;;;;;;5066800;28;20241;-81
2022/01/27 03:05:43;;;;;;;23.52;16.33;;;4.20;1.00;;;;;;5063941;28;20228;-80
2022/01/27 03:08:17;;;;;;;23.00;16.60;;;4.20;1.00;;;;;;5059462;28;20218;-80
2022/01/27 03:10:48;;;;;;;21.58;14.63;;;4.20;1.00;;;;;;5060698;28;20291;-81
2022/01/27 03:13:16;;;;;;;23.60;15.40;;;4.20;1.00;;;;;;5080118;28;20231;-79
2022/01/27 03:15:43;;;;;;;21.23;14.90;;;4.20;1.00;;;;;;5083370;28;20217;-78
2022/01/27 03:18:10;;;;;;;27.15;16.50;;;4.20;1.00;;;;;;5084411;28;20227;-79
2022/01/27 03:20:38;;;;;;;18.20;13.57;;;4.20;1.00;;;;;;5073354;28;20224;-79
2022/01/27 03:23:07;;;;;;;21.65;14.65;;;4.20;1.00;;;;;;5068880;28;21086;-79
2022/01/27 03:25:35;;;;;;;20.67;14.27;;;4.20;1.00;;;;;;5073983;28;20267;-79
2022/01/27 03:28:01;;;;;;;25.65;14.07;;;4.20;1.00;;;;;;5066482;28;20220;-79
2022/01/27 03:30:28;;;;;;;23.60;14.63;;;4.20;1.00;;;;;;5068194;28;20231;-80
2022/01/27 03:32:55;;;;;;;25.75;14.57;;;4.20;1.00;;;;;;5067370;28;22467;-81
2022/01/27 03:35:21;;;;;;;22.17;14.75;;;4.20;1.00;;;;;;5081544;28;20241;-79
2022/01/27 03:37:51;;;;;;;24.20;14.65;;;4.20;1.00;;;;;;5063157;28;20224;-80
2022/01/27 03:40:17;;;;;;;23.00;17.10;;;4.20;1.00;;;;;;5066970;28;20336;-80
2022/01/27 03:42:53;;;;;;;21.67;15.20;;;4.30;1.00;;;;;;5063338;28;20248;-80
2022/01/27 03:45:20;;;;;;;24.40;16.35;;;4.30;1.00;;;;;;5066700;28;20387;-79
2022/01/27 03:47:47;;;;;;;25.05;16.02;;;4.30;1.00;;;;;;5063298;28;20328;-80
2022/01/27 03:50:14;;;;;;;24.63;16.27;;;4.30;1.00;;;;;;5070154;28;20252;-80
2022/01/27 03:52:41;;;;;;;22.08;15.13;;;4.30;1.00;;;;;;5074812;28;20221;-79
2022/01/27 03:55:12;;;;;;;21.45;14.98;;;4.20;1.00;;;;;;5068124;28;20225;-79
2022/01/27 03:57:38;;;;;;;21.42;14.50;;;4.30;1.00;;;;;;5069215;28;20236;-79
2022/01/27 04:00:09;;;;;;;21.50;15.57;;;4.30;1.00;;;;;;5069336;28;21087;-80
2022/01/27 04:02:39;;;;;;;21.75;15.18;;;4.30;1.00;;;;;;5062045;28;20240;-80
2022/01/27 04:05:08;;;;;;;23.85;15.75;;;4.30;1.00;;;;;;5065128;28;20225;-80
2022/01/27 04:07:34;;;;;;;19.98;14.52;;;4.30;1.00;;;;;;5059456;28;20236;-80
2022/01/27 04:10:04;;;;;;;22.52;14.45;;;4.40;1.00;;;;;;5061890;28;20284;-80
2022/01/27 04:12:31;;;;;;;17.75;13.60;;;4.40;1.00;;;;;;5057932;28;20266;-80
2022/01/27 04:14:58;;;;;;;21.73;14.50;;;4.40;1.00;;;;;;5065023;28;20236;-80
2022/01/27 04:17:26;;;;;;;19.65;13.75;;;4.40;1.00;;;;;;5062976;28;20323;-80
2022/01/27 04:19:59;;;;;;;20.05;13.82;;;4.30;1.00;;;;;;5063308;28;20225;-79
2022/01/27 04:22:25;;;;;;;18.98;13.18;;;4.40;1.00;;;;;;5065196;28;20796;-79
2022/01/27 04:24:52;;;;;;;22.63;14.10;;;4.40;1.00;;;;;;5065709;28;20229;-79
2022/01/27 04:27:23;;;;;;;23.00;14.75;;;4.30;1.00;;;;;;5065889;28;20222;-80
2022/01/27 04:29:51;;;;;;;19.63;13.55;;;4.40;1.00;;;;;;5062782;28;20252;-80
2022/01/27 04:32:29;;;;;;;17.83;13.88;;;4.40;1.00;;;;;;5063033;28;20300;-81
2022/01/27 04:35:01;;;;;;;14.85;11.63;;;4.40;1.00;;;;;;5068643;28;20228;-80
2022/01/27 04:37:31;;;;;;;18.40;13.65;;;4.40;1.00;;;;;;5065128;28;20463;-81
2022/01/27 04:40:06;;;;;;;20.05;14.13;;;4.40;1.00;;;;;;5063016;28;20220;-81
2022/01/27 04:42:43;;;;;;;17.13;12.77;;;4.40;1.00;;;;;;5064257;28;20282;-81
2022/01/27 04:45:12;;;;;;;18.23;12.90;;;4.40;1.00;;;;;;5065409;28;20227;-82
2022/01/27 04:47:44;;;;;;;14.60;11.82;;;4.50;1.00;;;;;;5060002;28;20340;-81
2022/01/27 04:50:13;;;;;;;15.63;11.82;;;4.50;1.00;;;;;;5064737;28;21585;-82
2022/01/27 04:52:46;;;;;;;16.30;10.65;;;4.50;1.00;;;;;;5065955;28;20272;-81
2022/01/27 04:55:15;;;;;;;15.52;11.88;;;4.60;1.00;;;;;;5071643;28;20232;-81
2022/01/27 04:57:44;;;;;;;17.08;11.35;;;4.60;1.00;;;;;;5066225;28;20247;-79
2022/01/27 05:00:15;;;;;;;14.40;11.05;;;4.60;1.00;;;;;;5063445;28;20225;-80
2022/01/27 05:02:48;;;;;;;15.73;10.98;;;4.60;1.00;;;;;;5060286;28;20213;-80
2022/01/27 05:05:16;;;;;;;13.77;10.10;;;4.70;1.00;;;;;;5066160;28;20228;-79
2022/01/27 05:07:54;;;;;;;12.95;10.98;;;4.70;1.00;;;;;;5067221;28;20244;-80
2022/01/27 05:10:24;;;;;;;11.05;8.18;;;4.70;1.00;;;;;;5059136;28;20279;-79
2022/01/27 05:12:54;;;;;;;12.20;9.85;;;4.60;1.00;;;;;;5060023;28;20229;-79
2022/01/27 05:15:21;;;;;;;16.27;10.98;;;4.70;1.00;;;;;;5058985;28;20232;-80
2022/01/27 05:17:50;;;;;;;12.15;9.95;;;4.70;1.00;;;;;;5058454;28;20235;-80
2022/01/27 05:20:18;;;;;;;12.85;9.77;;;4.60;1.00;;;;;;5055780;28;20814;-79
2022/01/27 05:22:45;;;;;;;13.45;10.65;;;4.60;1.00;;;;;;5065635;28;20308;-79
2022/01/27 05:25:12;;;;;;;14.45;10.48;;;4.70;1.00;;;;;;5068689;28;20541;-78
2022/01/27 05:27:39;;;;;;;12.15;10.02;;;4.70;1.00;;;;;;5072403;28;20239;-81
2022/01/27 05:30:07;;;;;;;12.52;9.75;;;4.70;1.00;;;;;;5058821;28;20229;-80
2022/01/27 05:32:35;;;;;;;13.45;10.23;;;4.70;1.00;;;;;;5063163;28;20232;-78
2022/01/27 05:35:02;;;;;;;11.85;10.48;;;4.60;1.00;;;;;;5064309;28;20233;-79
2022/01/27 05:37:31;;;;;;;13.55;9.60;;;4.70;1.00;;;;;;5057593;28;20714;-80
2022/01/27 05:39:57;;;;;;;15.18;12.05;;;4.60;1.00;;;;;;5084270;28;20244;-78
2022/01/27 05:42:24;;;;;;;11.07;9.52;;;4.70;1.00;;;;;;5052694;28;20223;-78
2022/01/27 05:44:51;;;;;;;13.38;10.48;;;4.60;1.00;;;;;;5066801;28;21031;-78
2022/01/27 05:47:19;;;;;;;13.80;10.98;;;4.70;1.00;;;;;;5062636;28;20312;-79
2022/01/27 05:49:46;;;;;;;14.07;11.23;;;4.70;1.00;;;;;;5046704;28;20225;-79
2022/01/27 05:52:13;;;;;;;13.27;10.25;;;4.70;1.00;;;;;;5053957;28;20286;-79
2022/01/27 05:54:42;;;;;;;12.27;10.52;;;4.70;1.00;;;;;;5049888;28;20225;-79
2022/01/27 05:57:09;;;;;;;13.80;10.20;;;4.70;1.00;;;;;;5055029;28;20230;-80
2022/01/27 05:59:36;;;;;;;11.05;9.63;;;4.70;1.00;;;;;;5065076;28;21445;-79
2022/01/27 06:02:03;;;;;;;11.90;10.43;;;4.70;1.00;;;;;;5057902;28;20384;-81
2022/01/27 06:04:29;;;;;;;14.18;10.68;;;4.70;1.00;;;;;;5053046;28;20367;-80
2022/01/27 06:06:56;;;;;;;15.68;11.85;;;4.70;1.00;;;;;;5049361;28;20241;-80
2022/01/27 06:09:23;;;;;;;15.88;12.00;;;4.60;1.00;;;;;;5054532;28;20249;-79
2022/01/27 06:11:51;;;;;;;15.73;12.80;;;4.60;1.00;;;;;;5055067;28;20897;-79
2022/01/27 06:14:18;;;;;;;15.02;11.98;;;4.60;1.00;;;;;;5058919;28;20560;-80
2022/01/27 06:16:45;;;;;;;16.48;12.57;;;4.50;1.00;;;;;;5058536;28;20295;-80
2022/01/27 06:19:12;;;;;;;17.65;12.57;;;4.50;1.00;;;;;;5063234;28;20240;-80
2022/01/27 06:21:43;;;;;;;17.80;14.05;;;4.50;1.00;;;;;;5058428;28;20255;-80
2022/01/27 06:24:09;;;;;;;15.80;12.60;;;4.40;1.00;;;;;;5060879;28;20229;-79
2022/01/27 06:26:36;;;;;;;16.10;12.95;;;4.40;1.00;;;;;;5062574;28;20951;-78
2022/01/27 06:29:05;;;;;;;16.35;12.63;;;4.30;1.00;;;;;;5056587;28;20502;-81
2022/01/27 06:31:37;;;;;;;19.42;13.60;;;4.30;1.00;;;;;;5061371;28;20228;-84
2022/01/27 06:34:10;;;;;;;15.82;13.60;;;4.30;1.00;;;;;;5063333;28;20259;-83
2022/01/27 06:36:39;;;;;;;16.30;13.65;;;4.30;1.00;;;;;;5067679;28;20874;-82
2022/01/27 06:39:05;;;;;;;16.08;13.60;;;4.30;1.00;;;;;;5058781;28;22413;-83
2022/01/27 06:41:34;;;;;;;19.85;15.02;;;4.40;1.00;;;;;;5058007;28;20221;-87
2022/01/27 06:44:06;;;;;;;18.88;14.27;;;4.40;1.00;;;;;;5062487;28;20248;-87
2022/01/27 06:46:35;;;;;;;18.77;14.18;;;4.50;1.00;;;;;;5054121;28;20224;-84
2022/01/27 06:49:01;;;;;;;18.15;14.25;;;4.50;1.00;;;;;;5054341;28;20227;-86
2022/01/27 06:51:29;;;;;;;22.17;16.05;;;4.50;1.00;;;;;;5062308;28;20314;-86
2022/01/27 06:53:57;;;;;;;16.85;13.88;;;4.50;1.00;;;;;;5061180;28;21223;-84
2022/01/27 06:56:25;;;;;;;19.25;14.50;;;4.50;1.00;;;;;;5062416;28;20236;-84
2022/01/27 06:58:52;;;;;;;19.20;14.15;;;4.50;1.00;;;;;;5073761;28;20229;-82
2022/01/27 07:01:25;;;;;;;20.83;16.92;;;4.50;1.00;;;;;;5086947;28;20200;-85
2022/01/27 07:04:08;;;;;;;25.40;15.93;;;4.50;1.00;;;;;;5086714;28;20293;-86
2022/01/27 07:06:49;;;;;;;20.50;15.30;;;4.40;1.00;;;;;;5081354;28;20243;-85
2022/01/27 07:09:20;;;;;;;20.95;15.75;;;4.50;1.00;;;;;;5093849;27;20240;-85
2022/01/27 07:12:15;;;;;;;22.52;16.30;;;4.50;1.00;;;;;;5075585;28;20208;-86
2022/01/27 07:14:42;;;;;;;21.52;16.35;;;4.50;1.00;;;;;;5055419;28;20233;-82
2022/01/27 07:17:13;;;;;;;21.65;18.17;;;4.50;1.00;;;;;;5053890;28;20317;-81
2022/01/27 07:19:40;;;;;;;26.98;18.52;;;4.50;1.00;;;;;;5054954;28;20222;-81
2022/01/27 07:22:07;;;;;;;25.20;18.20;;;4.50;1.00;;;;;;5057759;28;20415;-80
2022/01/27 07:24:33;;;;;;;28.02;19.15;;;4.50;1.00;;;;;;5052882;28;20211;-81
2022/01/27 07:27:00;;;;;;;25.38;19.35;;;4.40;1.00;;;;;;5053256;28;20247;-81
2022/01/27 07:29:27;;;;;;;30.70;21.02;;;4.40;1.00;;;;;;5055506;28;20244;-80
2022/01/27 07:31:54;;;;;;;31.35;21.33;;;4.40;1.00;;;;;;5050735;28;21484;-87
2022/01/27 07:34:22;;;;;;;36.85;24.30;;;4.40;1.00;;;;;;5056120;28;20228;-86
2022/01/27 07:36:54;;;;;;;33.78;21.98;;;4.30;1.00;;;;;;5072890;28;20236;-87
2022/01/27 07:39:21;;;;;;;36.10;22.60;;;4.30;1.00;;;;;;5095450;28;21024;-85
2022/01/27 07:41:49;;;;;;;34.20;24.35;;;4.30;1.00;;;;;;5079524;28;20221;-86
2022/01/27 07:44:24;;;;;;;35.70;24.27;;;4.30;1.00;;;;;;5072059;28;20237;-89
2022/01/27 07:46:51;;;;;;;33.00;22.92;;;4.40;1.00;;;;;;5067257;28;20239;-89
2022/01/27 07:49:28;;;;;;;32.60;23.15;;;4.40;1.00;;;;;;5068694;28;20224;-89
2022/01/27 07:52:05;;;;;;;35.55;24.75;;;4.50;1.00;;;;;;5070665;28;21704;-91
2022/01/27 07:54:56;;;;;;;33.03;23.00;;;4.50;1.00;;;;;;5077655;28;20231;-92
2022/01/27 07:57:25;;;;;;;35.40;25.27;;;4.50;1.00;;;;;;5073197;28;20237;-90
2022/01/27 07:59:56;;;;;;;31.05;23.75;;;4.50;1.00;;;;;;5080312;28;20801;-90
2022/01/27 08:02:25;;;;;;;35.22;24.25;;;4.40;1.00;;;;;;5071369;28;20260;-89
2022/01/27 08:04:54;;;;;;;31.38;22.92;;;4.40;1.00;;;;;;5056482;28;20224;-87
2022/01/27 08:07:21;;;;;;;36.50;23.40;;;4.40;1.00;;;;;;5068128;28;21838;-89
2022/01/27 08:09:49;;;;;;;34.83;23.02;;;4.30;1.00;;;;;;5053677;28;20239;-87
2022/01/27 08:12:17;;;;;;;42.35;26.88;;;4.30;1.00;;;;;;5055693;28;20775;-89
2022/01/27 08:14:46;;;;;;;34.75;24.08;;;4.30;1.00;;;;;;5075615;28;20233;-86
2022/01/27 08:17:17;;;;;;;38.22;24.08;;;4.40;1.00;;;;;;5096367;27;20276;-83
2022/01/27 08:19:44;;;;;;;36.80;24.88;;;4.40;1.00;;;;;;5077672;28;20229;-85
2022/01/27 08:22:17;;;;;;;33.25;22.65;;;4.30;1.00;;;;;;5078572;28;21567;-90
2022/01/27 08:24:46;;;;;;;36.88;24.23;;;4.40;1.00;;;;;;5075951;28;20220;-89
2022/01/27 08:27:16;;;;;;;38.60;24.35;;;4.40;1.00;;;;;;5062638;28;20312;-85
2022/01/27 08:29:54;;;;;;;38.25;25.38;;;4.40;1.00;;;;;;5058862;28;20213;-88
2022/01/27 08:32:33;;;;;;;34.28;23.38;;;4.50;1.00;;;;;;5063179;28;20277;-89
2022/01/27 08:35:06;;;;;;;32.85;23.40;;;4.40;1.00;;;;;;5074481;27;20220;-84
2022/01/27 08:37:38;;;;;;;36.58;23.52;;;4.40;1.00;;;;;;5058618;28;20241;-85
2022/01/27 08:40:12;;;;;;;31.85;22.48;;;4.40;1.00;;;;;;5063228;28;20226;-89
2022/01/27 08:42:43;;;;;;;33.17;23.08;;;4.40;1.00;;;;;;5063076;28;20267;-87
2022/01/27 08:45:21;;;;;;;35.70;23.13;;;4.40;1.00;;;;;;5066547;28;20295;-88
2022/01/27 08:47:50;;;;;;;33.10;22.17;;;4.40;1.00;;;;;;5064037;28;20278;-86
2022/01/27 08:50:30;;;;;;;29.38;21.13;;;4.40;1.00;;;;;;5076770;28;20229;-87
2022/01/27 08:52:59;;;;;;;33.45;21.25;;;4.30;1.00;;;;;;5059740;28;20966;-90
2022/01/27 08:55:37;;;;;;;39.13;24.30;;;4.30;1.00;;;;;;5064666;28;20225;-88
2022/01/27 08:58:04;;;;;;;37.53;22.83;;;4.20;1.00;;;;;;5055090;28;20229;-87
2022/01/27 09:00:31;;;;;;;31.63;21.60;;;4.20;1.00;;;;;;5060363;28;20577;-84
2022/01/27 09:03:05;;;;;;;30.17;21.55;;;4.30;1.00;;;;;;5066270;28;20231;-86
2022/01/27 09:05:40;;;;;;;30.98;20.80;;;4.30;1.00;;;;;;5066449;28;20224;-84
2022/01/27 09:08:33;;;;;;;34.45;22.73;;;4.40;1.00;;;;;;5060697;28;20221;-85
2022/01/27 09:11:00;;;;;;;29.75;21.10;;;4.40;1.00;;;;;;5059426;28;20229;-85
2022/01/27 09:13:27;;;;;;;30.05;21.13;;;4.50;1.00;;;;;;5061112;28;20209;-82
2022/01/27 09:15:58;;;;;;;29.35;20.17;;;4.60;1.00;;;;;;5067012;28;20269;-82
2022/01/27 09:18:25;;;;;;;29.92;20.52;;;4.70;1.00;;;;;;5057099;28;20252;-86
2022/01/27 09:21:32;;;;;;;32.65;19.58;;;4.70;1.00;;;;;;5063154;28;20225;-84
2022/01/27 09:24:25;;;;;;;28.33;19.33;;;4.70;1.00;;;;;;5062488;28;20201;-85
2022/01/27 09:27:37;;;;;;;31.65;20.02;;;4.70;1.00;;;;;;5062152;28;20231;-90
2022/01/27 09:30:33;;;;;;;27.23;19.38;;;4.60;1.00;;;;;;5059613;28;20324;-91
2022/01/27 09:33:24;;;;;;;28.48;18.40;;;4.70;1.00;;;;;;5056069;28;20224;-88
2022/01/27 09:36:46;;;;;;;22.38;15.65;;;4.70;1.00;;;;;;5063077;28;20232;-88
2022/01/27 09:43:43;;;;;;;25.05;16.80;;;4.60;1.00;;;;;;5065299;28;20229;-89
2022/01/27 09:46:17;;;;;;;25.88;16.02;;;4.60;1.00;;;;;;5050903;28;20237;-88
2022/01/27 09:49:07;;;;;;;27.52;16.65;;;4.70;1.00;;;;;;5062181;28;20216;-92
2022/01/27 09:51:41;;;;;;;25.92;15.80;;;4.60;1.00;;;;;;5056365;28;20225;-88
2022/01/27 09:54:11;;;;;;;25.25;16.20;;;4.60;1.00;;;;;;5047254;28;20225;-85
2022/01/27 09:56:40;;;;;;;27.17;17.35;;;4.60;1.00;;;;;;5053406;28;20271;-84
2022/01/27 09:59:08;;;;;;;28.70;17.30;;;4.70;1.00;;;;;;5057511;28;20245;-83
2022/01/27 10:01:36;;;;;;;21.88;15.50;;;4.70;1.00;;;;;;5059206;28;20286;-85
2022/01/27 10:04:07;;;;;;;24.25;16.17;;;4.60;1.00;;;;;;5053646;28;20401;-85
2022/01/27 10:06:35;;;;;;;25.15;16.58;;;4.60;1.00;;;;;;5056918;28;20228;-83
2022/01/27 10:09:14;;;;;;;25.35;15.15;;;4.70;1.00;;;;;;5075133;28;20231;-82
2022/01/27 10:11:41;;;;;;;24.50;16.80;;;4.60;1.00;;;;;;5072505;28;20240;-82
2022/01/27 10:14:32;;;;;;;27.42;16.17;;;4.60;1.00;;;;;;5056512;28;20279;-85
2022/01/27 10:17:03;;;;;;;24.48;15.80;;;4.60;1.00;;;;;;5053530;28;20327;-84
2022/01/27 10:19:30;;;;;;;25.75;17.08;;;4.40;1.00;;;;;;5057383;28;20292;-84
2022/01/27 10:22:03;;;;;;;31.20;17.73;;;4.40;1.00;;;;;;5061183;28;20375;-86
2022/01/27 10:24:34;;;;;;;26.88;18.60;;;4.30;1.00;;;;;;5063062;28;20315;-84
2022/01/27 10:27:23;;;;;;;23.92;16.38;;;4.20;1.00;;;;;;5063111;28;20229;-84
2022/01/27 10:32:45;;;;;;;27.58;17.02;;;4.10;1.00;;;;;;5060615;28;20233;-82
2022/01/27 10:35:14;;;;;;;27.90;17.85;;;4.10;1.00;;;;;;5060276;28;20237;-82
2022/01/27 10:37:56;;;;;;;24.08;15.80;;;4.00;1.00;;;;;;5066584;28;20312;-83
2022/01/27 10:40:26;;;;;;;31.80;20.50;;;4.00;1.00;;;;;;5069279;28;20242;-84
2022/01/27 10:43:08;;;;;;;29.02;17.00;;;4.00;1.00;;;;;;5064385;28;20247;-82
2022/01/27 10:45:35;;;;;;;27.55;18.50;;;4.00;1.00;;;;;;5066895;28;20313;-82
2022/01/27 10:48:21;;;;;;;29.95;18.20;;;4.00;1.00;;;;;;5063395;28;23829;-83
2022/01/27 10:50:56;;;;;;;30.30;18.92;;;4.00;1.00;;;;;;5076913;28;20372;-83
2022/01/27 10:53:49;;;;;;;33.50;19.80;;;4.00;1.00;;;;;;5080950;28;20201;-81
2022/01/27 10:56:19;;;;;;;27.45;17.83;;;4.00;1.00;;;;;;5075358;28;20706;-81
2022/01/27 10:58:53;;;;;;;32.35;18.58;;;4.10;1.00;;;;;;5076332;28;20286;-82
2022/01/27 11:01:29;;;;;;;28.27;18.42;;;4.00;1.00;;;;;;5062684;28;20239;-84
2022/01/27 11:04:00;;;;;;;30.42;18.73;;;4.00;1.00;;;;;;5059520;28;20243;-81
2022/01/27 11:06:28;;;;;;;34.15;20.63;;;4.00;1.00;;;;;;5064938;28;20240;-81
2022/01/27 11:08:58;;;;;;;29.60;18.73;;;4.10;1.00;;;;;;5059818;28;20248;-82
2022/01/27 11:11:27;;;;;;;31.77;19.50;;;4.10;1.00;;;;;;5058635;28;20918;-82
2022/01/27 11:13:58;;;;;;;27.65;17.15;;;4.10;1.00;;;;;;5062559;28;20295;-82
2022/01/27 11:16:35;;;;;;;28.48;18.55;;;4.20;1.00;;;;;;5058862;28;20293;-85
2022/01/27 11:19:23;;;;;;;32.25;19.17;;;4.10;1.00;;;;;;5073129;28;20423;-83
2022/01/27 11:21:59;;;;;;;26.65;18.48;;;4.10;1.00;;;;;;5069422;28;20263;-84
2022/01/27 11:24:33;;;;;;;32.20;20.35;;;4.10;1.00;;;;;;5069370;28;20990;-83
2022/01/27 11:27:05;;;;;;;32.47;18.60;;;4.10;1.00;;;;;;5063128;28;20221;-84
2022/01/27 11:29:36;;;;;;;31.80;19.42;;;4.10;1.00;;;;;;5063332;28;20339;-82
2022/01/27 11:32:13;;;;;;;38.05;18.50;;;4.10;1.00;;;;;;5059266;28;20905;-85
2022/01/27 11:34:49;;;;;;;29.55;19.55;;;4.20;1.00;;;;;;5055606;28;20244;-84
2022/01/27 11:37:18;;;;;;;24.42;16.40;;;4.20;1.00;;;;;;5063900;28;20225;-81
2022/01/27 11:39:53;;;;;;;30.30;18.27;;;4.10;1.00;;;;;;5058844;28;20225;-82
2022/01/27 11:42:42;;;;;;;28.95;18.92;;;4.10;1.00;;;;;;5065772;28;20224;-79
2022/01/27 11:45:29;;;;;;;32.17;19.02;;;4.20;1.00;;;;;;5069990;28;20216;-81
2022/01/27 11:47:59;;;;;;;28.52;19.50;;;4.20;1.00;;;;;;5061974;28;20228;-84
2022/01/27 11:50:34;;;;;;;27.95;17.17;;;4.20;1.00;;;;;;5051838;28;20236;-83
2022/01/27 11:53:03;;;;;;;24.83;16.73;;;4.20;1.00;;;;;;5065527;28;20204;-80
2022/01/27 11:55:47;;;;;;;30.10;18.63;;;4.20;1.00;;;;;;5063691;28;20229;-81
2022/01/27 11:58:19;;;;;;;27.38;16.73;;;4.20;1.00;;;;;;5061830;28;20225;-81
2022/01/27 12:01:04;;;;;;;25.30;16.88;;;4.20;1.00;;;;;;5065588;28;20213;-86
2022/01/27 12:03:31;;;;;;;27.75;16.92;;;4.20;1.00;;;;;;5061066;28;20224;-79
2022/01/27 12:06:27;;;;;;;25.75;17.10;;;4.20;1.00;;;;;;5056645;28;20225;-85
2022/01/27 12:09:27;;;;;;;25.52;17.25;;;4.20;1.00;;;;;;5053075;28;20221;-80
2022/01/27 12:11:56;;;;;;;22.42;16.40;;;4.20;1.00;;;;;;5048465;28;20225;-81
2022/01/27 12:14:26;;;;;;;22.67;16.08;;;4.20;1.00;;;;;;5038463;28;20286;-81
2022/01/27 12:17:20;;;;;;;27.20;16.55;;;4.20;1.00;;;;;;5041274;28;20328;-80
2022/01/27 12:20:13;;;;;;;28.60;18.35;;;4.20;1.00;;;;;;5043903;28;20245;-81
2022/01/27 12:23:14;;;;;;;23.63;16.67;;;4.20;1.00;;;;;;5029050;28;20308;-80
2022/01/27 12:25:47;;;;;;;30.63;18.45;;;4.20;1.00;;;;;;5035929;28;20232;-83
2022/01/27 12:28:14;;;;;;;31.75;17.08;;;4.20;1.00;;;;;;5055641;28;20226;-83
2022/01/27 12:30:41;;;;;;;26.50;16.50;;;4.20;1.00;;;;;;5030907;28;20221;-83
2022/01/27 12:33:08;;;;;;;38.03;18.00;;;4.20;1.00;;;;;;5043582;28;20313;-82
2022/01/27 12:35:35;;;;;;;27.65;17.77;;;4.20;1.00;;;;;;5050659;28;20229;-82
2022/01/27 12:38:02;;;;;;;31.58;20.63;;;4.20;1.00;;;;;;5063658;28;20226;-82
2022/01/27 12:40:33;;;;;;;24.70;17.25;;;4.20;1.00;;;;;;5039940;28;20992;-82
2022/01/27 12:43:03;;;;;;;25.90;16.70;;;4.20;1.00;;;;;;5031788;28;20352;-83
2022/01/27 12:45:32;;;;;;;27.52;18.40;;;4.20;1.00;;;;;;5033014;28;20311;-83
2022/01/27 12:48:03;;;;;;;27.95;17.00;;;4.20;1.00;;;;;;5036278;28;20241;-81
2022/01/27 12:50:30;;;;;;;24.88;16.58;;;4.20;1.00;;;;;;5034514;28;20225;-81
2022/01/27 12:53:02;;;;;;;23.30;15.43;;;4.20;1.00;;;;;;5035834;28;20379;-82
2022/01/27 12:55:33;;;;;;;29.65;15.80;;;4.20;1.00;;;;;;5028992;28;20341;-82
2022/01/27 12:58:02;;;;;;;23.73;16.13;;;4.20;1.00;;;;;;5028152;28;20229;-79
2022/01/27 13:00:36;;;;;;;24.52;15.20;;;4.20;1.00;;;;;;5028304;28;20328;-79
2022/01/27 13:03:03;;;;;;;28.08;16.92;;;4.20;1.00;;;;;;5036719;28;21108;-83
2022/01/27 13:05:35;;;;;;;26.20;16.73;;;4.20;1.00;;;;;;5044964;28;20325;-78
2022/01/27 13:08:03;;;;;;;23.30;15.95;;;4.20;1.00;;;;;;5049843;28;20229;-83
2022/01/27 13:10:31;;;;;;;25.75;16.58;;;4.30;1.00;;;;;;5047453;28;20225;-83
2022/01/27 13:13:06;;;;;;;26.67;16.52;;;4.30;1.00;;;;;;5041796;28;20222;-85
2022/01/27 13:15:33;;;;;;;27.60;16.52;;;4.40;1.00;;;;;;5050544;28;20272;-83
2022/01/27 13:18:05;;;;;;;26.60;17.00;;;4.40;1.00;;;;;;5057294;28;20221;-83
2022/01/27 13:20:36;;;;;;;22.15;16.90;;;4.40;1.00;;;;;;5040466;28;20238;-81
2022/01/27 13:23:12;;;;;;;25.67;15.88;;;4.40;1.00;;;;;;5035699;28;20275;-82
2022/01/27 13:25:44;;;;;;;28.38;16.73;;;4.40;1.00;;;;;;5041444;28;21207;-81
2022/01/27 13:28:15;;;;;;;25.60;16.77;;;4.40;1.00;;;;;;5038895;28;20220;-82
2022/01/27 13:30:42;;;;;;;29.73;17.60;;;4.50;1.00;;;;;;5045439;28;20318;-81
2022/01/27 13:33:14;;;;;;;26.45;15.70;;;4.60;1.00;;;;;;5053412;28;20217;-80
2022/01/27 13:35:42;;;;;;;22.83;16.40;;;4.60;1.00;;;;;;5065457;28;20210;-81
2022/01/27 13:38:17;;;;;;;23.20;15.32;;;4.60;1.00;;;;;;5065028;28;20302;-82
2022/01/27 13:43:38;;;;;;;26.00;16.67;;;4.70;1.00;;;;;;5043809;28;20234;-83
2022/01/27 13:46:06;;;;;;;22.63;14.50;;;4.80;1.00;;;;;;5047709;28;20683;-82